Main page
METAR-TAF:

METAR-TAF

Airports :

Oil platform

P11-b, Netherlands

latitude: 52-21-36N, longitude: 3-20-30E, elevation: 24 m

Current weather observation

The report was made 30 minutes ago, at 07:25 UTC
Wind 4 kt from the Northwest, varying between West/Southwest and North
Temperature 7°C
Humidity 76%
Pressure 1030 hPa
Visibility 10 km or more
Scattered clouds at a height of 1400 ft
Scattered clouds at a height of 1700 ft

METAR: EHPG 240725Z AUTO 32004KT 240V010 9999 SCT014 SCT017 07/03 Q1030 W///H///

Time: 08:55 (07:55 UTC)


TAF: missing

Weather observations and forecasts of more than 4000 airports (METAR and TAF reports).

The available stations are represented by yellow and red dots on the map.

Hover mouse over dot to see the name of the station.

Then click to see weather observations and forecasts.

To change the map : click on the green buttons with a black cross to zoom in, on the green button with a dash to zoom out, or on the green arrows for adjacent maps.


METAR-TAF: